Time;durP1;ratioP1;P1;durP2;ratioP2;P2;SDS_P1;SDS_P2;PMS_P1;PMS_P2;Temp;Humidity;BMP_temperature;BMP_pressure;BME280_temperature;BME280_humidity;BME280_pressure;Samples;Min_cycle;Max_cycle;Signal;HPM_P1;HPM_P2
2021/08/15 00:01:14;;;;;;;4.47;2.90;;;26.20;54.00;;;;;;5035442;28;20237;-53
2021/08/15 00:03:40;;;;;;;2.90;2.67;;;26.20;54.00;;;;;;5032449;28;20259;-53
2021/08/15 00:06:06;;;;;;;3.30;2.90;;;26.20;54.00;;;;;;5027383;28;20201;-52
2021/08/15 00:08:33;;;;;;;3.53;3.13;;;26.20;54.00;;;;;;5030961;28;20672;-55
2021/08/15 00:11:01;;;;;;;3.78;3.20;;;26.20;54.00;;;;;;5036055;28;20289;-54
2021/08/15 00:13:28;;;;;;;4.55;3.00;;;26.20;54.00;;;;;;5029809;28;20198;-53
2021/08/15 00:15:55;;;;;;;3.15;2.85;;;26.20;54.00;;;;;;5027249;28;20289;-54
2021/08/15 00:18:21;;;;;;;3.45;3.10;;;26.20;54.00;;;;;;5032346;28;20234;-54
2021/08/15 00:20:48;;;;;;;3.10;2.80;;;26.20;54.00;;;;;;5028719;28;20213;-55
2021/08/15 00:23:14;;;;;;;2.70;2.50;;;26.20;54.00;;;;;;5032143;28;20210;-52
2021/08/15 00:25:41;;;;;;;2.83;2.60;;;26.20;54.00;;;;;;5038081;28;20209;-54
2021/08/15 00:28:07;;;;;;;3.33;3.03;;;26.20;54.00;;;;;;5032362;28;20244;-52
2021/08/15 00:30:34;;;;;;;3.83;3.03;;;26.20;54.00;;;;;;5031153;28;20208;-55
2021/08/15 00:33:00;;;;;;;3.67;2.53;;;26.20;54.00;;;;;;5031530;28;20206;-52
2021/08/15 00:35:27;;;;;;;3.03;2.72;;;26.20;54.00;;;;;;5030372;28;20203;-55
2021/08/15 00:37:53;;;;;;;3.33;2.65;;;26.20;54.00;;;;;;5031900;28;20246;-55
2021/08/15 00:40:20;;;;;;;2.83;2.53;;;26.20;54.00;;;;;;5030557;28;20240;-51
2021/08/15 00:42:46;;;;;;;2.90;2.70;;;26.20;54.00;;;;;;5031944;28;20202;-54
2021/08/15 00:45:13;;;;;;;3.25;2.55;;;26.20;54.00;;;;;;5030637;28;20199;-53
2021/08/15 00:47:39;;;;;;;3.70;2.97;;;26.20;54.00;;;;;;5031122;28;20218;-54
2021/08/15 00:50:06;;;;;;;3.10;2.80;;;26.20;54.00;;;;;;5030430;28;20202;-54
2021/08/15 00:52:32;;;;;;;3.25;2.70;;;26.20;54.30;;;;;;5031706;28;20293;-53
2021/08/15 00:54:58;;;;;;;3.10;2.55;;;26.20;54.40;;;;;;5030584;28;20203;-53
2021/08/15 00:57:25;;;;;;;3.78;2.70;;;26.20;54.60;;;;;;5030613;28;20214;-53
2021/08/15 00:59:51;;;;;;;2.95;2.42;;;26.20;54.50;;;;;;5030501;28;20230;-53
2021/08/15 01:02:18;;;;;;;3.05;2.70;;;26.20;54.60;;;;;;5031526;28;20207;-54
2021/08/15 01:04:44;;;;;;;3.08;2.78;;;26.20;54.60;;;;;;5030896;28;20208;-54
2021/08/15 01:07:11;;;;;;;2.70;2.50;;;26.20;54.70;;;;;;5029430;28;20784;-55
2021/08/15 01:09:37;;;;;;;2.58;2.30;;;26.20;54.70;;;;;;5030623;28;20297;-51
2021/08/15 01:12:04;;;;;;;2.97;2.42;;;26.20;54.80;;;;;;5029916;28;20285;-49
2021/08/15 01:14:30;;;;;;;3.45;2.60;;;26.20;54.90;;;;;;5029478;28;20213;-54
2021/08/15 01:16:56;;;;;;;2.60;2.40;;;26.20;54.80;;;;;;5029186;28;20207;-55
2021/08/15 01:19:23;;;;;;;2.40;2.20;;;26.20;54.80;;;;;;5030289;28;20258;-54
2021/08/15 01:21:49;;;;;;;2.60;2.40;;;26.20;54.90;;;;;;5029572;28;20213;-53
2021/08/15 01:24:16;;;;;;;2.95;2.70;;;26.20;55.10;;;;;;5029010;28;20220;-54
2021/08/15 01:26:42;;;;;;;2.85;2.63;;;26.20;54.90;;;;;;5029121;28;20206;-54
2021/08/15 01:29:09;;;;;;;4.15;2.65;;;26.20;55.20;;;;;;5031076;28;20226;-54
2021/08/15 01:31:35;;;;;;;2.97;2.67;;;26.20;55.20;;;;;;5029827;28;20195;-54
2021/08/15 01:34:01;;;;;;;2.80;2.60;;;26.20;55.20;;;;;;5030059;28;20209;-53
2021/08/15 01:36:28;;;;;;;3.33;2.30;;;26.20;55.40;;;;;;5029602;28;20218;-54
2021/08/15 01:38:54;;;;;;;2.60;2.40;;;26.20;55.50;;;;;;5029811;28;20675;-51
2021/08/15 01:41:21;;;;;;;2.50;2.30;;;26.20;55.30;;;;;;5029065;28;20198;-49
2021/08/15 01:43:47;;;;;;;3.20;2.53;;;26.20;55.40;;;;;;5029672;28;20272;-54
2021/08/15 01:46:14;;;;;;;2.60;2.40;;;26.20;55.50;;;;;;5029337;28;20757;-54
2021/08/15 01:48:40;;;;;;;3.70;2.72;;;26.20;55.50;;;;;;5030216;28;20721;-53
2021/08/15 01:51:07;;;;;;;2.80;2.42;;;26.20;55.50;;;;;;5030340;28;20207;-53
2021/08/15 01:53:33;;;;;;;2.65;2.40;;;26.20;55.50;;;;;;5028652;28;20206;-52
2021/08/15 01:55:59;;;;;;;2.83;2.33;;;26.20;55.60;;;;;;5029703;28;20228;-53
2021/08/15 01:58:26;;;;;;;4.72;2.58;;;26.20;55.50;;;;;;5028685;28;20236;-56
2021/08/15 02:00:52;;;;;;;2.65;2.45;;;26.20;55.40;;;;;;5030109;28;20198;-55
2021/08/15 02:03:19;;;;;;;2.70;2.50;;;26.20;55.50;;;;;;5028373;28;20213;-54
2021/08/15 02:05:45;;;;;;;2.60;2.40;;;26.20;55.80;;;;;;5027624;28;20232;-54
2021/08/15 02:08:12;;;;;;;2.70;2.45;;;26.20;55.80;;;;;;5023784;28;20226;-54
2021/08/15 02:10:38;;;;;;;3.22;2.88;;;26.20;55.70;;;;;;5029228;28;20198;-54
2021/08/15 02:13:04;;;;;;;3.38;2.63;;;26.20;55.60;;;;;;5027692;28;20331;-54
2021/08/15 02:15:31;;;;;;;2.85;2.58;;;26.20;55.50;;;;;;5023714;28;20202;-54
2021/08/15 02:17:58;;;;;;;2.95;2.38;;;26.20;55.50;;;;;;5029630;28;20657;-54
2021/08/15 02:20:25;;;;;;;4.47;2.58;;;26.20;55.50;;;;;;5030033;28;20834;-53
2021/08/15 02:22:51;;;;;;;3.10;2.67;;;26.20;55.30;;;;;;5029149;28;20198;-50
2021/08/15 02:25:18;;;;;;;2.90;2.70;;;26.20;55.30;;;;;;5027974;28;20213;-53
2021/08/15 02:27:44;;;;;;;2.70;2.50;;;26.20;55.30;;;;;;5027440;28;20226;-55
2021/08/15 02:30:11;;;;;;;2.55;2.35;;;26.20;55.10;;;;;;5029258;28;20202;-53
2021/08/15 02:32:37;;;;;;;2.70;2.50;;;26.20;55.10;;;;;;5027470;28;20205;-54
2021/08/15 02:35:03;;;;;;;2.78;2.58;;;26.20;55.10;;;;;;5028983;28;20463;-55
2021/08/15 02:37:30;;;;;;;2.83;2.45;;;26.20;55.00;;;;;;5028078;28;20214;-51
2021/08/15 02:39:59;;;;;;;2.42;2.22;;;26.20;55.00;;;;;;5030162;28;20237;-53
2021/08/15 02:42:25;;;;;;;2.80;2.55;;;26.20;55.00;;;;;;5027902;28;20202;-53
2021/08/15 02:44:51;;;;;;;3.50;3.20;;;26.20;54.90;;;;;;5029746;28;20674;-53
2021/08/15 02:47:18;;;;;;;3.75;2.78;;;26.20;54.90;;;;;;5027943;28;20228;-54
2021/08/15 02:49:44;;;;;;;3.05;2.78;;;26.20;54.80;;;;;;5029042;28;20210;-51
2021/08/15 02:52:11;;;;;;;3.45;2.88;;;26.20;54.80;;;;;;5029753;28;20198;-53
2021/08/15 02:54:37;;;;;;;3.10;2.80;;;26.20;54.80;;;;;;5029316;28;20624;-54
2021/08/15 02:57:04;;;;;;;2.92;2.63;;;26.10;54.70;;;;;;5028668;28;20303;-53
2021/08/15 02:59:30;;;;;;;3.20;2.90;;;26.20;54.70;;;;;;5029343;28;20236;-53
2021/08/15 03:01:57;;;;;;;3.00;2.35;;;26.20;54.70;;;;;;5029292;28;20191;-54
2021/08/15 03:04:23;;;;;;;3.28;2.95;;;26.20;54.60;;;;;;5029366;28;20202;-52
2021/08/15 03:06:50;;;;;;;2.83;2.60;;;26.10;54.60;;;;;;5028707;28;20269;-52
2021/08/15 03:09:16;;;;;;;2.65;2.45;;;26.10;54.60;;;;;;5029294;28;20207;-54
2021/08/15 03:11:43;;;;;;;3.13;2.67;;;26.10;54.50;;;;;;5029887;28;20281;-53
2021/08/15 03:14:09;;;;;;;2.63;2.42;;;26.10;54.50;;;;;;5028718;28;20385;-54
2021/08/15 03:16:36;;;;;;;2.78;2.58;;;26.20;54.50;;;;;;5030537;28;20308;-54
2021/08/15 03:19:03;;;;;;;2.75;2.45;;;26.10;54.40;;;;;;5031780;28;20627;-54
2021/08/15 03:21:31;;;;;;;2.55;2.35;;;26.10;54.40;;;;;;5032698;28;20648;-53
2021/08/15 03:23:57;;;;;;;3.08;2.50;;;26.10;54.40;;;;;;5032285;28;20253;-54
2021/08/15 03:26:24;;;;;;;2.97;2.70;;;26.10;54.30;;;;;;5031008;28;20416;-53
2021/08/15 03:28:50;;;;;;;2.97;2.67;;;26.10;54.40;;;;;;5031991;28;20614;-54
2021/08/15 03:31:17;;;;;;;2.90;2.70;;;26.10;54.30;;;;;;5032973;28;20281;-54
2021/08/15 03:33:43;;;;;;;2.90;2.70;;;26.10;54.30;;;;;;5032736;28;20207;-52
2021/08/15 03:36:10;;;;;;;2.72;2.50;;;26.10;54.30;;;;;;5031759;28;20289;-52
2021/08/15 03:38:36;;;;;;;2.60;2.40;;;26.10;54.30;;;;;;5032431;28;20214;-54
2021/08/15 03:41:03;;;;;;;2.80;2.60;;;26.10;54.20;;;;;;5031550;28;20240;-53
2021/08/15 03:43:30;;;;;;;2.83;2.63;;;26.10;54.20;;;;;;5032039;28;20598;-54
2021/08/15 03:45:56;;;;;;;2.75;2.35;;;26.10;54.20;;;;;;5032566;28;20208;-57
2021/08/15 03:48:23;;;;;;;2.78;2.55;;;26.10;54.30;;;;;;5030041;28;20227;-54
2021/08/15 03:50:49;;;;;;;3.33;2.60;;;26.20;55.00;;;;;;5032033;28;20290;-54
2021/08/15 03:53:15;;;;;;;2.47;2.20;;;26.20;54.80;;;;;;5031784;28;20286;-52
2021/08/15 03:55:42;;;;;;;2.90;2.60;;;26.20;54.90;;;;;;5032019;28;20206;-54
2021/08/15 03:58:08;;;;;;;2.95;2.65;;;26.20;55.00;;;;;;5031342;28;20222;-54
2021/08/15 04:00:40;;;;;;;2.80;2.60;;;26.10;54.90;;;;;;5031641;28;20287;-55
2021/08/15 04:03:06;;;;;;;2.47;2.20;;;26.10;54.80;;;;;;5031402;28;20203;-55
2021/08/15 04:05:33;;;;;;;3.20;2.90;;;26.10;54.80;;;;;;5031107;28;20228;-54
2021/08/15 04:07:59;;;;;;;3.58;2.60;;;26.10;54.80;;;;;;5030609;28;20663;-54
2021/08/15 04:10:26;;;;;;;3.08;2.80;;;26.10;54.70;;;;;;5029070;28;20561;-52
2021/08/15 04:12:52;;;;;;;2.85;2.65;;;26.10;54.70;;;;;;5032466;28;20586;-54
2021/08/15 04:15:19;;;;;;;2.80;2.45;;;26.10;54.70;;;;;;5031169;28;20563;-54
2021/08/15 04:17:45;;;;;;;3.05;2.85;;;26.10;54.70;;;;;;5031985;28;20232;-54
2021/08/15 04:20:11;;;;;;;2.60;2.38;;;26.10;54.60;;;;;;5031079;28;20718;-52
2021/08/15 04:22:38;;;;;;;3.50;2.60;;;26.10;54.60;;;;;;5030791;28;20655;-54
2021/08/15 04:25:05;;;;;;;2.60;2.40;;;26.10;54.60;;;;;;5029998;28;20206;-53
2021/08/15 04:27:31;;;;;;;3.03;2.38;;;26.10;54.60;;;;;;5030565;28;20226;-55
2021/08/15 04:29:57;;;;;;;2.72;2.50;;;26.10;54.50;;;;;;5030674;28;20198;-53
2021/08/15 04:32:24;;;;;;;3.25;2.95;;;26.10;54.60;;;;;;5030936;28;20233;-55
2021/08/15 04:34:51;;;;;;;3.15;2.33;;;26.10;54.50;;;;;;5031975;28;20714;-55
2021/08/15 04:37:18;;;;;;;2.90;2.70;;;26.10;54.50;;;;;;5030527;28;20242;-53
2021/08/15 04:39:44;;;;;;;2.63;2.42;;;26.10;54.50;;;;;;5031360;28;20224;-51
2021/08/15 04:42:11;;;;;;;2.70;2.50;;;26.10;54.50;;;;;;5030650;28;20208;-54
2021/08/15 04:44:37;;;;;;;2.42;2.22;;;26.10;54.50;;;;;;5032144;28;20229;-50
2021/08/15 04:47:04;;;;;;;2.58;2.38;;;26.10;54.40;;;;;;5030395;28;20578;-55
2021/08/15 04:49:30;;;;;;;3.25;2.38;;;26.10;54.40;;;;;;5030895;28;20224;-52
2021/08/15 04:51:56;;;;;;;2.47;2.28;;;26.10;54.40;;;;;;5030758;28;20213;-52
2021/08/15 04:54:26;;;;;;;3.05;2.80;;;26.10;54.40;;;;;;5031637;28;20199;-53
2021/08/15 04:56:53;;;;;;;3.08;2.85;;;26.10;54.30;;;;;;5029554;28;20226;-53
2021/08/15 04:59:19;;;;;;;2.50;2.30;;;26.10;54.30;;;;;;5031493;28;20632;-53
2021/08/15 05:01:46;;;;;;;2.70;2.50;;;26.10;54.30;;;;;;5028847;28;20230;-55
2021/08/15 05:04:12;;;;;;;3.20;2.90;;;26.10;54.40;;;;;;5031805;28;20215;-50
2021/08/15 05:06:38;;;;;;;2.78;2.30;;;26.10;54.30;;;;;;5029880;28;20218;-52
2021/08/15 05:09:05;;;;;;;2.90;2.60;;;26.10;54.30;;;;;;5031572;28;20212;-53
2021/08/15 05:11:31;;;;;;;3.10;2.72;;;26.10;54.30;;;;;;5029820;28;20237;-55
2021/08/15 05:13:58;;;;;;;2.85;2.50;;;26.10;54.20;;;;;;5030154;28;20241;-54
2021/08/15 05:16:24;;;;;;;3.00;2.30;;;26.10;54.20;;;;;;5028435;28;20222;-54
2021/08/15 05:18:51;;;;;;;2.40;2.20;;;26.10;54.30;;;;;;5031385;28;20203;-55
2021/08/15 05:21:17;;;;;;;2.53;2.33;;;26.10;54.20;;;;;;5029978;28;20332;-52
2021/08/15 05:23:44;;;;;;;3.15;2.40;;;26.10;54.20;;;;;;5030195;28;20206;-55
2021/08/15 05:26:10;;;;;;;2.95;2.75;;;26.10;54.20;;;;;;5029610;28;20278;-55
2021/08/15 05:28:37;;;;;;;3.17;2.85;;;26.10;54.20;;;;;;5029569;28;20201;-52
2021/08/15 05:31:03;;;;;;;3.03;2.70;;;26.10;54.20;;;;;;5029775;28;20213;-55
2021/08/15 05:33:30;;;;;;;2.70;2.50;;;26.10;54.10;;;;;;5030043;28;20199;-53
2021/08/15 05:35:56;;;;;;;3.42;2.80;;;26.10;54.20;;;;;;5030689;28;20202;-50
2021/08/15 05:38:22;;;;;;;2.80;2.50;;;26.10;54.20;;;;;;5029095;28;20220;-54
2021/08/15 05:40:49;;;;;;;2.75;2.45;;;26.10;54.20;;;;;;5029266;28;20230;-51
2021/08/15 05:43:15;;;;;;;2.80;2.45;;;26.10;54.10;;;;;;5029742;28;20213;-53
2021/08/15 05:45:42;;;;;;;3.10;2.80;;;26.10;54.10;;;;;;5030148;28;20206;-54
2021/08/15 05:48:08;;;;;;;2.60;2.40;;;26.10;54.00;;;;;;5030068;28;20218;-54
2021/08/15 05:50:35;;;;;;;2.60;2.40;;;26.10;54.00;;;;;;5030986;28;20206;-53
2021/08/15 05:53:01;;;;;;;2.85;2.65;;;26.10;54.00;;;;;;5030120;28;20386;-55
2021/08/15 05:55:28;;;;;;;2.63;2.42;;;26.10;54.00;;;;;;5028633;28;20293;-54
2021/08/15 05:57:54;;;;;;;3.03;2.40;;;26.10;54.00;;;;;;5029149;28;20236;-55
2021/08/15 06:00:21;;;;;;;2.67;2.47;;;26.10;54.00;;;;;;5029559;28;20227;-51
2021/08/15 06:02:47;;;;;;;3.40;2.47;;;26.10;53.90;;;;;;5030481;28;20204;-53
2021/08/15 06:05:14;;;;;;;2.50;2.30;;;26.10;54.00;;;;;;5028500;28;20217;-53
2021/08/15 06:07:41;;;;;;;2.60;2.40;;;26.10;53.90;;;;;;5029912;28;20245;-52
2021/08/15 06:10:07;;;;;;;3.28;2.60;;;26.10;53.90;;;;;;5026716;28;20209;-54
2021/08/15 06:12:34;;;;;;;2.30;2.17;;;26.10;54.00;;;;;;5030685;28;20284;-54
2021/08/15 06:15:00;;;;;;;3.05;2.80;;;26.10;54.00;;;;;;5027209;28;20211;-52
2021/08/15 06:17:26;;;;;;;3.03;2.63;;;26.10;54.00;;;;;;5030130;28;20282;-54
2021/08/15 06:19:53;;;;;;;2.88;2.67;;;26.10;54.00;;;;;;5029132;28;20294;-53
2021/08/15 06:22:19;;;;;;;3.38;2.80;;;26.10;54.00;;;;;;5029778;28;20199;-54
2021/08/15 06:24:46;;;;;;;3.20;2.92;;;26.10;54.00;;;;;;5029407;28;20209;-52
2021/08/15 06:27:12;;;;;;;2.80;2.60;;;26.10;54.00;;;;;;5029362;28;20222;-55
2021/08/15 06:29:39;;;;;;;2.50;2.30;;;26.20;54.00;;;;;;5028791;28;20289;-55
2021/08/15 06:32:05;;;;;;;3.90;2.67;;;26.20;54.00;;;;;;5027493;28;20207;-55
2021/08/15 06:34:32;;;;;;;2.72;2.50;;;26.20;54.00;;;;;;5029326;28;20204;-55
2021/08/15 06:36:58;;;;;;;2.72;2.50;;;26.20;54.00;;;;;;5029818;28;20228;-55
2021/08/15 06:39:24;;;;;;;2.90;2.20;;;26.20;54.00;;;;;;5028901;28;20202;-55
2021/08/15 06:41:51;;;;;;;2.70;2.50;;;26.20;54.30;;;;;;5029883;28;20257;-55
2021/08/15 06:44:17;;;;;;;2.40;2.20;;;26.20;54.30;;;;;;5029178;28;20555;-55
2021/08/15 06:46:44;;;;;;;3.55;2.35;;;26.20;55.50;;;;;;5028202;28;20230;-53
2021/08/15 06:49:10;;;;;;;3.75;2.42;;;26.20;55.10;;;;;;5028740;28;20209;-53
2021/08/15 06:51:37;;;;;;;2.83;2.25;;;26.20;55.10;;;;;;5030248;28;20203;-54
2021/08/15 06:54:03;;;;;;;2.63;2.35;;;26.20;55.80;;;;;;5030302;28;20230;-53
2021/08/15 06:56:30;;;;;;;2.33;2.13;;;26.20;55.70;;;;;;5031645;28;20305;-56
2021/08/15 06:58:56;;;;;;;2.80;2.50;;;26.20;55.60;;;;;;5033233;28;20202;-56
2021/08/15 07:01:24;;;;;;;2.97;2.40;;;26.20;56.30;;;;;;5034675;28;20234;-57
2021/08/15 07:03:50;;;;;;;2.85;2.55;;;26.30;56.70;;;;;;5043245;28;20296;-57
2021/08/15 07:06:17;;;;;;;3.72;3.20;;;26.30;56.50;;;;;;5034929;28;20324;-56
2021/08/15 07:08:43;;;;;;;13.93;10.25;;;26.30;56.10;;;;;;5041650;28;20198;-57
2021/08/15 07:11:10;;;;;;;12.00;9.23;;;26.00;55.70;;;;;;5031503;28;20210;-56
2021/08/15 07:13:36;;;;;;;11.75;8.98;;;25.90;57.30;;;;;;5038656;28;20217;-57
2021/08/15 07:16:04;;;;;;;9.60;7.18;;;26.00;57.70;;;;;;5039090;28;20230;-54
2021/08/15 07:18:30;;;;;;;9.55;7.20;;;26.10;57.10;;;;;;5033245;28;20651;-57
2021/08/15 07:21:00;;;;;;;9.77;7.05;;;26.20;57.50;;;;;;5039842;28;20839;-53
2021/08/15 07:23:26;;;;;;;9.00;6.85;;;26.20;56.00;;;;;;5032947;28;20206;-50
2021/08/15 07:25:53;;;;;;;13.32;8.73;;;26.20;56.30;;;;;;5038198;28;20224;-54
2021/08/15 07:28:19;;;;;;;13.95;10.00;;;26.10;56.80;;;;;;5031361;28;20206;-54
2021/08/15 07:30:46;;;;;;;14.07;9.00;;;26.10;56.80;;;;;;5027316;28;20214;-57
2021/08/15 07:33:12;;;;;;;16.85;9.63;;;26.00;57.40;;;;;;5032516;28;20221;-56
2021/08/15 07:35:38;;;;;;;15.00;10.05;;;26.00;57.80;;;;;;5028240;28;20759;-59
2021/08/15 07:38:05;;;;;;;19.55;11.40;;;26.00;57.80;;;;;;5034493;28;20304;-56
2021/08/15 07:40:31;;;;;;;15.80;11.02;;;25.90;58.20;;;;;;5032324;28;20317;-61
2021/08/15 07:42:58;;;;;;;14.57;10.85;;;25.90;57.30;;;;;;5035094;28;20206;-59
2021/08/15 07:45:24;;;;;;;13.90;10.55;;;26.00;57.40;;;;;;5033938;28;20203;-56
2021/08/15 07:47:51;;;;;;;13.52;9.77;;;26.00;57.90;;;;;;5042447;28;20228;-57
2021/08/15 07:50:17;;;;;;;11.63;9.80;;;26.00;57.20;;;;;;5032861;28;20293;-58
2021/08/15 07:52:44;;;;;;;11.25;9.75;;;26.10;57.80;;;;;;5030748;28;20217;-57
2021/08/15 07:55:10;;;;;;;12.13;8.68;;;26.10;57.80;;;;;;5031793;28;20607;-57
2021/08/15 07:57:37;;;;;;;11.05;8.77;;;26.10;57.20;;;;;;5028217;28;20237;-58
2021/08/15 08:00:03;;;;;;;9.88;8.05;;;26.20;57.00;;;;;;5030712;28;20198;-58
2021/08/15 08:02:30;;;;;;;10.80;8.70;;;26.20;57.10;;;;;;5031016;28;20278;-58
2021/08/15 08:04:56;;;;;;;12.68;9.55;;;26.20;57.10;;;;;;5033984;28;20567;-58
2021/08/15 08:07:24;;;;;;;11.48;9.45;;;26.20;55.90;;;;;;5031017;28;20594;-58
2021/08/15 08:09:50;;;;;;;12.70;10.05;;;26.20;54.70;;;;;;5032392;28;20266;-58
2021/08/15 08:12:17;;;;;;;10.25;9.15;;;26.10;53.90;;;;;;5030957;28;20628;-58
2021/08/15 08:14:43;;;;;;;10.57;9.48;;;26.10;54.40;;;;;;5041085;28;20305;-57
2021/08/15 08:17:12;;;;;;;15.13;9.32;;;26.10;54.00;;;;;;5038793;28;20226;-58
2021/08/15 08:19:39;;;;;;;12.00;9.73;;;26.10;54.00;;;;;;5035298;28;20255;-57
2021/08/15 08:22:05;;;;;;;10.15;9.18;;;26.10;54.30;;;;;;5031084;28;20252;-58
2021/08/15 08:24:31;;;;;;;8.82;7.97;;;26.10;54.80;;;;;;5019240;28;20245;-58
2021/08/15 08:26:58;;;;;;;10.95;8.70;;;26.10;55.10;;;;;;5014174;28;20219;-58
2021/08/15 08:29:24;;;;;;;9.98;8.93;;;26.10;55.10;;;;;;5026416;28;20210;-57
2021/08/15 08:31:51;;;;;;;10.20;9.20;;;26.20;55.00;;;;;;5027321;28;20293;-57
2021/08/15 08:34:17;;;;;;;10.63;8.95;;;26.20;54.00;;;;;;5031903;28;20294;-58
2021/08/15 08:36:44;;;;;;;10.30;8.55;;;26.20;54.00;;;;;;5034503;28;20561;-58
2021/08/15 08:39:10;;;;;;;9.10;7.93;;;26.20;54.20;;;;;;5033021;28;20252;-57
2021/08/15 08:41:37;;;;;;;10.70;9.60;;;26.20;54.40;;;;;;5028909;28;20886;-58
2021/08/15 08:44:03;;;;;;;9.38;8.27;;;26.20;54.00;;;;;;5028241;28;20228;-57
2021/08/15 08:46:30;;;;;;;9.18;8.23;;;26.20;54.00;;;;;;5027138;28;20721;-58
2021/08/15 08:48:56;;;;;;;8.70;7.90;;;26.20;54.30;;;;;;5031714;28;20214;-58
2021/08/15 08:51:23;;;;;;;11.18;8.85;;;26.20;54.00;;;;;;5028970;28;20201;-57
2021/08/15 08:53:49;;;;;;;12.68;8.82;;;26.20;54.70;;;;;;5028125;28;20207;-57
2021/08/15 08:56:16;;;;;;;8.93;7.82;;;26.30;54.70;;;;;;5029587;28;20230;-55
2021/08/15 08:58:42;;;;;;;10.55;8.23;;;26.30;54.50;;;;;;5031761;28;20206;-57
2021/08/15 09:01:09;;;;;;;9.35;7.63;;;26.30;54.50;;;;;;5031923;28;20248;-57
2021/08/15 09:03:35;;;;;;;14.52;8.57;;;26.30;54.40;;;;;;5031952;28;20564;-57
2021/08/15 09:06:03;;;;;;;11.90;8.40;;;26.40;54.40;;;;;;5027287;28;20625;-56
2021/08/15 09:08:30;;;;;;;9.68;8.25;;;26.30;54.40;;;;;;5030284;28;20671;-57
2021/08/15 09:10:56;;;;;;;10.50;8.30;;;26.40;54.60;;;;;;5031742;28;20207;-57
2021/08/15 09:13:23;;;;;;;9.85;8.85;;;26.40;54.50;;;;;;5031722;28;20230;-55
2021/08/15 09:15:50;;;;;;;9.10;8.07;;;26.40;54.60;;;;;;5030925;28;20298;-57
2021/08/15 09:18:16;;;;;;;8.70;7.72;;;26.40;54.70;;;;;;5031045;28;20314;-55
2021/08/15 09:20:42;;;;;;;9.15;8.27;;;26.40;54.60;;;;;;5031211;28;20314;-57
2021/08/15 09:23:09;;;;;;;11.05;8.80;;;26.40;54.70;;;;;;5031356;28;20205;-56
2021/08/15 09:25:35;;;;;;;9.68;8.63;;;26.40;54.70;;;;;;5029909;28;20250;-56
2021/08/15 09:28:02;;;;;;;9.07;7.75;;;26.40;54.90;;;;;;5030848;28;20207;-56
2021/08/15 09:30:28;;;;;;;11.32;8.48;;;26.40;54.90;;;;;;5031241;28;20199;-57
2021/08/15 09:32:55;;;;;;;8.48;7.63;;;26.40;54.80;;;;;;5030785;28;20209;-57
2021/08/15 09:35:21;;;;;;;7.60;6.90;;;26.40;54.90;;;;;;5030922;28;20233;-57
2021/08/15 09:37:47;;;;;;;9.73;8.40;;;26.40;54.90;;;;;;5030143;28;20206;-56
2021/08/15 09:40:14;;;;;;;8.65;7.85;;;26.40;55.00;;;;;;5031341;28;20207;-56
2021/08/15 09:42:40;;;;;;;8.65;7.72;;;26.40;55.00;;;;;;5030908;28;20230;-57
2021/08/15 09:45:07;;;;;;;9.38;8.15;;;26.40;55.00;;;;;;5030601;28;20352;-56
2021/08/15 09:47:33;;;;;;;8.70;7.90;;;26.40;55.00;;;;;;5026757;28;20201;-56
2021/08/15 09:50:00;;;;;;;9.52;8.57;;;26.40;55.10;;;;;;5029488;28;20202;-58
2021/08/15 09:52:26;;;;;;;10.02;8.07;;;26.40;55.20;;;;;;5030194;28;20345;-58
2021/08/15 09:54:53;;;;;;;8.43;7.63;;;26.40;55.30;;;;;;5030295;28;20202;-56
2021/08/15 09:57:19;;;;;;;9.02;8.13;;;26.40;55.40;;;;;;5029628;28;20206;-57
2021/08/15 09:59:46;;;;;;;10.48;8.20;;;26.40;55.50;;;;;;5029967;28;20818;-59
2021/08/15 10:02:12;;;;;;;8.43;7.68;;;26.40;55.40;;;;;;5029551;28;20934;-58
2021/08/15 10:04:39;;;;;;;9.20;8.30;;;26.40;55.30;;;;;;5026491;28;20673;-57
2021/08/15 10:07:05;;;;;;;9.65;8.65;;;26.40;55.90;;;;;;5026913;28;20202;-56
2021/08/15 10:09:32;;;;;;;8.77;7.88;;;26.40;55.20;;;;;;5028334;28;20634;-56
2021/08/15 10:11:59;;;;;;;9.25;8.27;;;26.40;55.20;;;;;;5032701;28;20657;-56
2021/08/15 10:14:25;;;;;;;10.90;8.88;;;26.50;55.20;;;;;;5040205;28;20202;-57
2021/08/15 10:16:51;;;;;;;8.88;7.88;;;26.50;55.20;;;;;;5047807;28;20207;-56
2021/08/15 10:19:18;;;;;;;9.90;8.40;;;26.50;55.20;;;;;;5044434;28;20202;-56
2021/08/15 10:21:44;;;;;;;10.73;8.70;;;26.40;55.20;;;;;;5028441;28;20230;-57
2021/08/15 10:24:11;;;;;;;10.00;8.35;;;26.50;55.20;;;;;;5029588;28;20250;-58
2021/08/15 10:26:37;;;;;;;10.32;7.95;;;26.50;55.20;;;;;;5050058;28;20193;-57
2021/08/15 10:29:04;;;;;;;10.32;8.13;;;26.50;55.20;;;;;;5032420;28;20924;-57
2021/08/15 10:31:30;;;;;;;8.90;8.02;;;26.50;55.20;;;;;;5035624;28;20662;-56
2021/08/15 10:33:57;;;;;;;11.30;8.70;;;26.50;55.10;;;;;;5036755;28;20670;-56
2021/08/15 10:36:24;;;;;;;11.00;8.80;;;26.50;55.00;;;;;;5035687;28;20194;-56
2021/08/15 10:38:51;;;;;;;8.63;7.82;;;26.50;55.00;;;;;;5036385;28;20198;-56
2021/08/15 10:41:17;;;;;;;10.45;8.05;;;26.50;55.00;;;;;;5034844;28;20304;-57
2021/08/15 10:43:43;;;;;;;8.50;7.32;;;26.50;55.00;;;;;;5031546;28;20213;-56
2021/08/15 10:46:10;;;;;;;9.15;7.95;;;26.50;55.00;;;;;;5036358;28;20221;-57
2021/08/15 10:48:36;;;;;;;11.05;8.32;;;26.50;55.00;;;;;;5036352;28;20198;-57
2021/08/15 10:51:03;;;;;;;8.52;7.63;;;26.50;55.10;;;;;;5036312;28;20202;-56
2021/08/15 10:53:29;;;;;;;8.38;7.38;;;26.50;55.10;;;;;;5036416;28;20206;-55
2021/08/15 10:55:56;;;;;;;13.52;8.48;;;26.50;55.10;;;;;;5035217;28;20777;-56
2021/08/15 10:58:22;;;;;;;8.02;6.55;;;26.50;55.00;;;;;;5035980;28;20626;-56
2021/08/15 11:00:49;;;;;;;7.63;6.82;;;26.50;55.00;;;;;;5035578;28;20673;-57
2021/08/15 11:03:16;;;;;;;8.25;7.20;;;26.50;55.00;;;;;;5035213;28;20653;-57
2021/08/15 11:05:42;;;;;;;8.38;6.95;;;26.50;55.00;;;;;;5034964;28;20226;-57
2021/08/15 11:08:09;;;;;;;7.47;6.78;;;26.50;54.90;;;;;;5036583;28;20286;-57
2021/08/15 11:10:35;;;;;;;8.43;7.32;;;26.50;54.80;;;;;;5036008;28;20228;-57
2021/08/15 11:13:02;;;;;;;9.90;6.35;;;26.50;54.70;;;;;;5036553;28;20289;-57
2021/08/15 11:15:28;;;;;;;8.60;5.97;;;26.50;54.70;;;;;;5035549;28;20220;-58
2021/08/15 11:17:55;;;;;;;8.35;6.28;;;26.50;54.70;;;;;;5036778;28;20209;-58
2021/08/15 11:20:21;;;;;;;6.15;5.60;;;26.50;54.70;;;;;;5035588;28;20198;-58
2021/08/15 11:22:47;;;;;;;8.25;6.57;;;26.50;54.50;;;;;;5034911;28;20242;-56
2021/08/15 11:25:14;;;;;;;8.18;6.18;;;26.50;54.60;;;;;;5035186;28;20304;-56
2021/08/15 11:27:42;;;;;;;7.53;6.68;;;26.50;54.70;;;;;;5035462;28;20290;-55
2021/08/15 11:30:09;;;;;;;10.65;6.93;;;26.50;54.60;;;;;;5034288;28;20261;-59
2021/08/15 11:32:35;;;;;;;16.85;11.10;;;26.50;54.60;;;;;;5034848;28;20201;-58
2021/08/15 11:35:02;;;;;;;28.45;20.15;;;26.50;54.80;;;;;;5035082;28;20297;-58
2021/08/15 11:37:28;;;;;;;50.50;35.28;;;26.50;55.30;;;;;;5031248;28;20719;-58
2021/08/15 11:39:55;;;;;;;62.08;42.67;;;26.50;55.70;;;;;;5032752;28;20205;-58
2021/08/15 11:42:21;;;;;;;55.33;40.53;;;26.50;55.90;;;;;;5033080;28;20234;-57
2021/08/15 11:44:48;;;;;;;55.35;41.00;;;26.50;55.90;;;;;;5032719;28;20214;-57
2021/08/15 11:47:14;;;;;;;50.15;39.45;;;26.50;56.10;;;;;;5030341;28;20213;-58
2021/08/15 11:49:40;;;;;;;48.15;35.63;;;26.50;56.20;;;;;;5032757;28;20206;-57
2021/08/15 11:52:07;;;;;;;42.83;31.27;;;26.50;56.30;;;;;;5031864;28;20206;-58
2021/08/15 11:54:33;;;;;;;38.72;29.52;;;26.50;56.00;;;;;;5031830;28;20219;-58
2021/08/15 11:57:00;;;;;;;38.75;26.98;;;26.50;56.00;;;;;;5032733;28;20400;-57
2021/08/15 11:59:27;;;;;;;31.05;22.33;;;26.50;56.00;;;;;;5031283;28;20238;-58
2021/08/15 12:01:53;;;;;;;30.25;21.70;;;26.50;56.00;;;;;;5032518;28;20540;-57
2021/08/15 12:04:20;;;;;;;28.25;19.23;;;26.50;55.90;;;;;;5028714;28;20218;-57
2021/08/15 12:06:46;;;;;;;25.15;17.48;;;26.50;55.80;;;;;;5027444;28;20285;-57
2021/08/15 12:09:12;;;;;;;20.38;16.05;;;26.50;55.70;;;;;;5034735;28;20209;-58
2021/08/15 12:11:39;;;;;;;17.52;14.25;;;26.50;55.50;;;;;;5032059;28;20293;-57
2021/08/15 12:14:05;;;;;;;18.73;13.93;;;26.50;55.30;;;;;;5030924;28;20309;-57
2021/08/15 12:16:32;;;;;;;18.42;12.85;;;26.50;55.20;;;;;;5031230;28;20199;-57
2021/08/15 12:19:00;;;;;;;16.25;12.10;;;26.50;55.20;;;;;;5032961;28;20220;-59
2021/08/15 12:21:26;;;;;;;14.00;11.48;;;26.50;55.00;;;;;;5032027;28;20272;-58
2021/08/15 12:23:53;;;;;;;13.50;11.55;;;26.50;55.00;;;;;;5031261;28;20306;-58
2021/08/15 12:26:19;;;;;;;15.18;10.57;;;26.50;54.90;;;;;;5030410;28;20205;-58
2021/08/15 12:28:46;;;;;;;13.35;10.10;;;26.50;54.80;;;;;;5030664;28;20281;-58
2021/08/15 12:31:12;;;;;;;13.23;9.98;;;26.50;54.70;;;;;;5031325;28;20722;-58
2021/08/15 12:33:39;;;;;;;13.00;10.38;;;26.50;54.60;;;;;;5031679;28;20306;-59
2021/08/15 12:36:05;;;;;;;10.85;9.77;;;26.50;54.40;;;;;;5029744;28;20206;-59
2021/08/15 12:38:32;;;;;;;13.40;10.25;;;26.50;54.20;;;;;;5032068;28;20564;-58